sensor_id;sensor_type;location;lat;lon;timestamp;pressure;altitude;pressure_sealevel;temperature;humidity
3524;BME280;1776;53.330;11.498;2024-01-11T00:00:57;22700.78;;;-147.39;89.21
3524;BME280;1776;53.330;11.498;2024-01-11T00:03:24;22684.50;;;-147.39;88.93
3524;BME280;1776;53.330;11.498;2024-01-11T00:05:49;22406.06;;;-147.39;88.79
3524;BME280;1776;53.330;11.498;2024-01-11T00:08:14;22601.19;;;-147.39;89.68
3524;BME280;1776;53.330;11.498;2024-01-11T00:10:40;22601.19;;;-147.39;90.18
3524;BME280;1776;53.330;11.498;2024-01-11T00:13:05;22607.28;;;-147.39;90.47
3524;BME280;1776;53.330;11.498;2024-01-11T00:15:31;22548.34;;;-147.39;90.89
3524;BME280;1776;53.330;11.498;2024-01-11T00:17:56;22570.69;;;-147.39;91.46
3524;BME280;1776;53.330;11.498;2024-01-11T00:20:21;22282.09;;;-147.39;91.62
3524;BME280;1776;53.330;11.498;2024-01-11T00:22:46;22438.56;;;-147.39;91.95
3524;BME280;1776;53.330;11.498;2024-01-11T00:25:12;22385.75;;;-147.39;91.96
3524;BME280;1776;53.330;11.498;2024-01-11T00:27:37;22381.66;;;-147.39;92.05
3524;BME280;1776;53.330;11.498;2024-01-11T00:30:03;22265.81;;;-147.39;91.89
3524;BME280;1776;53.330;11.498;2024-01-11T00:32:28;22271.94;;;-147.39;92.00
3524;BME280;1776;53.330;11.498;2024-01-11T00:34:54;22450.78;;;-147.39;91.74
3524;BME280;1776;53.330;11.498;2024-01-11T00:37:19;22265.81;;;-147.39;92.09
3524;BME280;1776;53.330;11.498;2024-01-11T00:39:44;22253.63;;;-147.39;92.00
3524;BME280;1776;53.330;11.498;2024-01-11T00:42:09;22245.50;;;-147.39;91.69
3524;BME280;1776;53.330;11.498;2024-01-11T00:44:35;22227.22;;;-147.39;91.82
3524;BME280;1776;53.330;11.498;2024-01-11T00:47:00;22217.06;;;-147.39;92.14
3524;BME280;1776;53.330;11.498;2024-01-11T00:49:25;22194.69;;;-147.39;92.58
3524;BME280;1776;53.330;11.498;2024-01-11T00:51:51;22133.72;;;-147.39;92.51
3524;BME280;1776;53.330;11.498;2024-01-11T00:54:16;22129.66;;;-147.39;93.12
3524;BME280;1776;53.330;11.498;2024-01-11T00:56:41;22076.81;;;-147.39;93.34
3524;BME280;1776;53.330;11.498;2024-01-11T00:59:06;21930.50;;;-147.39;93.43
3524;BME280;1776;53.330;11.498;2024-01-11T01:01:32;21963.03;;;-147.39;94.24
3524;BME280;1776;53.330;11.498;2024-01-11T01:03:58;21944.75;;;-147.39;94.31
3524;BME280;1776;53.330;11.498;2024-01-11T01:06:23;21816.72;;;-147.39;94.00
3524;BME280;1776;53.330;11.498;2024-01-11T01:08:48;21832.97;;;-147.39;94.20
3524;BME280;1776;53.330;11.498;2024-01-11T01:11:13;21731.38;;;-147.39;94.31
3524;BME280;1776;53.330;11.498;2024-01-11T01:13:39;21694.78;;;-147.39;94.54
3524;BME280;1776;53.330;11.498;2024-01-11T01:16:04;21739.50;;;-147.39;93.95
3524;BME280;1776;53.330;11.498;2024-01-11T01:18:29;21676.50;;;-147.39;93.90
3524;BME280;1776;53.330;11.498;2024-01-11T01:20:55;21670.41;;;-147.39;93.66
3524;BME280;1776;53.330;11.498;2024-01-11T01:23:21;21837.03;;;-147.39;93.85
3524;BME280;1776;53.330;11.498;2024-01-11T01:25:46;21670.41;;;-147.39;94.12
3524;BME280;1776;53.330;11.498;2024-01-11T01:28:11;21690.72;;;-147.39;93.88
3524;BME280;1776;53.330;11.498;2024-01-11T01:30:37;21668.38;;;-147.39;93.74
3524;BME280;1776;53.330;11.498;2024-01-11T01:33:02;21696.81;;;-147.39;93.36
3524;BME280;1776;53.330;11.498;2024-01-11T01:35:27;21690.72;;;-147.39;93.46
3524;BME280;1776;53.330;11.498;2024-01-11T01:37:53;21702.91;;;-147.39;93.97
3524;BME280;1776;53.330;11.498;2024-01-11T01:40:18;21115.72;;;-147.39;94.16
3524;BME280;1776;53.330;11.498;2024-01-11T01:42:44;21727.31;;;-147.39;94.51
3524;BME280;1776;53.330;11.498;2024-01-11T01:45:10;21625.69;;;-147.39;94.28
3524;BME280;1776;53.330;11.498;2024-01-11T01:47:36;21605.38;;;-147.39;93.79
3524;BME280;1776;53.330;11.498;2024-01-11T01:50:03;21633.84;;;-147.39;93.78
3524;BME280;1776;53.330;11.498;2024-01-11T01:52:29;21637.91;;;-147.39;93.79
3524;BME280;1776;53.330;11.498;2024-01-11T01:54:55;21664.31;;;-147.39;93.71
3524;BME280;1776;53.330;11.498;2024-01-11T01:57:22;21692.75;;;-147.39;93.81
3524;BME280;1776;53.330;11.498;2024-01-11T01:59:51;21648.06;;;-147.39;93.58
3524;BME280;1776;53.330;11.498;2024-01-11T02:02:19;21696.81;;;-147.39;93.45
3524;BME280;1776;53.330;11.498;2024-01-11T02:04:44;21700.88;;;-147.39;93.26
3524;BME280;1776;53.330;11.498;2024-01-11T02:07:10;21759.81;;;-147.39;93.24
3524;BME280;1776;53.330;11.498;2024-01-11T02:09:36;21719.19;;;-147.39;93.34
3524;BME280;1776;53.330;11.498;2024-01-11T02:12:02;21696.81;;;-147.39;93.40
3524;BME280;1776;53.330;11.498;2024-01-11T02:14:28;21855.31;;;-147.39;93.00
3524;BME280;1776;53.330;11.498;2024-01-11T02:16:53;21723.25;;;-147.39;93.11
3524;BME280;1776;53.330;11.498;2024-01-11T02:19:19;21672.44;;;-147.39;93.15
3524;BME280;1776;53.330;11.498;2024-01-11T02:21:46;21737.47;;;-147.39;93.03
3524;BME280;1776;53.330;11.498;2024-01-11T02:24:13;21747.63;;;-147.39;92.38
3524;BME280;1776;53.330;11.498;2024-01-11T02:26:58;21690.72;;;-147.39;92.49
3524;BME280;1776;53.330;11.498;2024-01-11T02:29:24;21713.06;;;-147.39;93.11
3524;BME280;1776;53.330;11.498;2024-01-11T02:31:50;21694.78;;;-147.39;93.58
3524;BME280;1776;53.330;11.498;2024-01-11T02:34:15;21648.06;;;-147.39;93.62
3524;BME280;1776;53.330;11.498;2024-01-11T02:36:41;21148.22;;;-147.39;93.75
3524;BME280;1776;53.330;11.498;2024-01-11T02:39:07;21668.38;;;-147.39;93.39
3524;BME280;1776;53.330;11.498;2024-01-11T02:41:32;21664.31;;;-147.39;93.24
3524;BME280;1776;53.330;11.498;2024-01-11T02:43:58;21684.63;;;-147.39;93.18
3524;BME280;1776;53.330;11.498;2024-01-11T02:46:24;21690.72;;;-147.39;93.24
3524;BME280;1776;53.330;11.498;2024-01-11T02:48:49;21666.34;;;-147.39;93.40
3524;BME280;1776;53.330;11.498;2024-01-11T02:51:14;21656.19;;;-147.39;93.51
3524;BME280;1776;53.330;11.498;2024-01-11T02:53:39;21660.25;;;-147.39;93.81
3524;BME280;1776;53.330;11.498;2024-01-11T02:56:05;21621.63;;;-147.39;93.75
3524;BME280;1776;53.330;11.498;2024-01-11T02:58:30;21654.16;;;-147.39;93.48
3524;BME280;1776;53.330;11.498;2024-01-11T03:00:55;21633.84;;;-147.39;93.68
3524;BME280;1776;53.330;11.498;2024-01-11T03:03:20;21656.19;;;-147.39;93.55
3524;BME280;1776;53.330;11.498;2024-01-11T03:05:46;21587.09;;;-147.39;93.44
3524;BME280;1776;53.330;11.498;2024-01-11T03:08:11;21650.09;;;-147.39;93.75
3524;BME280;1776;53.330;11.498;2024-01-11T03:10:39;21615.53;;;-147.39;93.54
3524;BME280;1776;53.330;11.498;2024-01-11T03:13:06;21652.13;;;-147.39;93.79
3524;BME280;1776;53.330;11.498;2024-01-11T03:15:31;21607.41;;;-147.39;93.77
3524;BME280;1776;53.330;11.498;2024-01-11T03:17:57;21572.88;;;-147.39;94.12
3524;BME280;1776;53.330;11.498;2024-01-11T03:20:23;21591.16;;;-147.39;93.98
3524;BME280;1776;53.330;11.498;2024-01-11T03:22:50;21595.22;;;-147.39;94.09
3524;BME280;1776;53.330;11.498;2024-01-11T03:25:16;21593.19;;;-147.39;94.02
3524;BME280;1776;53.330;11.498;2024-01-11T03:27:41;21597.25;;;-147.39;93.94
3524;BME280;1776;53.330;11.498;2024-01-11T03:30:07;21617.56;;;-147.39;93.59
3524;BME280;1776;53.330;11.498;2024-01-11T03:32:32;21633.84;;;-147.39;93.56
3524;BME280;1776;53.330;11.498;2024-01-11T03:34:58;21617.56;;;-147.39;93.29
3524;BME280;1776;53.330;11.498;2024-01-11T03:37:23;21637.91;;;-147.39;93.32
3524;BME280;1776;53.330;11.498;2024-01-11T03:39:48;21633.84;;;-147.39;93.23
3524;BME280;1776;53.330;11.498;2024-01-11T03:42:13;21676.50;;;-147.39;93.47
3524;BME280;1776;53.330;11.498;2024-01-11T03:44:39;21641.97;;;-147.39;93.32
3524;BME280;1776;53.330;11.498;2024-01-11T03:47:04;21715.13;;;-147.39;93.60
3524;BME280;1776;53.330;11.498;2024-01-11T03:49:29;21680.56;;;-147.39;93.87
3524;BME280;1776;53.330;11.498;2024-01-11T03:51:54;21585.06;;;-147.39;93.88
3524;BME280;1776;53.330;11.498;2024-01-11T03:54:20;21660.25;;;-147.39;93.68
3524;BME280;1776;53.330;11.498;2024-01-11T03:56:45;21591.16;;;-147.39;93.74
3524;BME280;1776;53.330;11.498;2024-01-11T03:59:10;21609.44;;;-147.39;94.13
3524;BME280;1776;53.330;11.498;2024-01-11T04:01:42;21662.28;;;-147.39;94.02
3524;BME280;1776;53.330;11.498;2024-01-11T04:04:08;21666.34;;;-147.39;94.16
3524;BME280;1776;53.330;11.498;2024-01-11T04:06:34;21595.22;;;-147.39;94.39
3524;BME280;1776;53.330;11.498;2024-01-11T04:08:59;21585.06;;;-147.39;94.43
3524;BME280;1776;53.330;11.498;2024-01-11T04:11:28;21542.41;;;-147.39;94.56
3524;BME280;1776;53.330;11.498;2024-01-11T04:13:53;21564.75;;;-147.39;94.46
3524;BME280;1776;53.330;11.498;2024-01-11T04:16:20;21562.72;;;-147.39;94.56
3524;BME280;1776;53.330;11.498;2024-01-11T04:18:45;21635.88;;;-147.39;94.73
3524;BME280;1776;53.330;11.498;2024-01-11T04:21:27;21501.75;;;-147.39;94.34
3524;BME280;1776;53.330;11.498;2024-01-11T04:23:55;21652.13;;;-147.39;94.82
3524;BME280;1776;53.330;11.498;2024-01-11T04:26:21;21524.09;;;-147.39;94.57
3524;BME280;1776;53.330;11.498;2024-01-11T04:28:47;21513.94;;;-147.39;94.32
3524;BME280;1776;53.330;11.498;2024-01-11T04:31:13;21493.63;;;-147.39;94.32
3524;BME280;1776;53.330;11.498;2024-01-11T04:33:43;21666.34;;;-147.39;94.15
3524;BME280;1776;53.330;11.498;2024-01-11T04:36:08;21544.44;;;-147.39;94.34
3524;BME280;1776;53.330;11.498;2024-01-11T04:38:34;21548.50;;;-147.39;93.88
3524;BME280;1776;53.330;11.498;2024-01-11T04:41:00;21583.03;;;-147.39;93.84
3524;BME280;1776;53.330;11.498;2024-01-11T04:43:25;21556.63;;;-147.39;93.98
3524;BME280;1776;53.330;11.498;2024-01-11T04:45:51;21534.25;;;-147.39;94.05
3524;BME280;1776;53.330;11.498;2024-01-11T04:48:16;21572.88;;;-147.39;94.01
3524;BME280;1776;53.330;11.498;2024-01-11T04:50:42;21568.81;;;-147.39;94.14
3524;BME280;1776;53.330;11.498;2024-01-11T04:53:08;21558.66;;;-147.39;93.94
3524;BME280;1776;53.330;11.498;2024-01-11T04:55:34;21609.44;;;-147.39;93.90
3524;BME280;1776;53.330;11.498;2024-01-11T04:57:59;21558.66;;;-147.39;93.92
3524;BME280;1776;53.330;11.498;2024-01-11T05:00:24;21564.75;;;-147.39;93.99
3524;BME280;1776;53.330;11.498;2024-01-11T05:02:49;21528.16;;;-147.39;93.95
3524;BME280;1776;53.330;11.498;2024-01-11T05:05:15;21515.97;;;-147.39;94.24
3524;BME280;1776;53.330;11.498;2024-01-11T05:07:40;21564.75;;;-147.39;93.53
3524;BME280;1776;53.330;11.498;2024-01-11T05:10:06;21542.41;;;-147.39;93.79
3524;BME280;1776;53.330;11.498;2024-01-11T05:12:31;21601.31;;;-147.39;93.85
3524;BME280;1776;53.330;11.498;2024-01-11T05:14:57;21650.09;;;-147.39;93.72
3524;BME280;1776;53.330;11.498;2024-01-11T05:17:22;21684.63;;;-147.39;93.70
3524;BME280;1776;53.330;11.498;2024-01-11T05:19:47;21627.72;;;-147.39;93.86
3524;BME280;1776;53.330;11.498;2024-01-11T05:22:12;21572.88;;;-147.39;93.89
3524;BME280;1776;53.330;11.498;2024-01-11T05:24:38;21495.66;;;-147.39;94.41
3524;BME280;1776;53.330;11.498;2024-01-11T05:27:03;20959.28;;;-147.39;94.66
3524;BME280;1776;53.330;11.498;2024-01-11T05:29:28;21520.03;;;-147.39;94.41
3524;BME280;1776;53.330;11.498;2024-01-11T05:31:54;21515.97;;;-147.39;94.22
3524;BME280;1776;53.330;11.498;2024-01-11T05:34:19;21518.00;;;-147.39;94.04
3524;BME280;1776;53.330;11.498;2024-01-11T05:36:44;21597.25;;;-147.39;93.98
3524;BME280;1776;53.330;11.498;2024-01-11T05:39:10;21568.81;;;-147.39;93.85
3524;BME280;1776;53.330;11.498;2024-01-11T05:41:35;21489.56;;;-147.39;94.64
3524;BME280;1776;53.330;11.498;2024-01-11T05:44:00;21648.06;;;-147.39;94.66
3524;BME280;1776;53.330;11.498;2024-01-11T05:46:26;21656.19;;;-147.39;94.51
3524;BME280;1776;53.330;11.498;2024-01-11T05:48:51;21503.78;;;-147.39;94.90
3524;BME280;1776;53.330;11.498;2024-01-11T05:51:16;21249.81;;;-147.39;94.82
3524;BME280;1776;53.330;11.498;2024-01-11T05:53:41;21483.47;;;-147.39;94.56
3524;BME280;1776;53.330;11.498;2024-01-11T05:56:08;21568.81;;;-147.39;94.25
3524;BME280;1776;53.330;11.498;2024-01-11T05:58:34;21552.56;;;-147.39;94.11
3524;BME280;1776;53.330;11.498;2024-01-11T06:00:59;21617.56;;;-147.39;93.64
3524;BME280;1776;53.330;11.498;2024-01-11T06:03:24;21576.94;;;-147.39;93.71
3524;BME280;1776;53.330;11.498;2024-01-11T06:05:50;21487.53;;;-147.39;93.94
3524;BME280;1776;53.330;11.498;2024-01-11T06:08:15;21581.00;;;-147.39;93.53
3524;BME280;1776;53.330;11.498;2024-01-11T06:10:40;21568.81;;;-147.39;93.30
3524;BME280;1776;53.330;11.498;2024-01-11T06:13:06;21578.97;;;-147.39;93.46
3524;BME280;1776;53.330;11.498;2024-01-11T06:15:31;21595.22;;;-147.39;92.93
3524;BME280;1776;53.330;11.498;2024-01-11T06:17:57;21625.69;;;-147.39;92.58
3524;BME280;1776;53.330;11.498;2024-01-11T06:20:22;21639.94;;;-147.39;92.44
3524;BME280;1776;53.330;11.498;2024-01-11T06:22:47;21635.88;;;-147.39;92.66
3524;BME280;1776;53.330;11.498;2024-01-11T06:25:12;21637.91;;;-147.39;93.08
3524;BME280;1776;53.330;11.498;2024-01-11T06:27:38;21613.50;;;-147.39;93.08
3524;BME280;1776;53.330;11.498;2024-01-11T06:30:04;21601.31;;;-147.39;92.78
3524;BME280;1776;53.330;11.498;2024-01-11T06:32:29;21601.31;;;-147.39;92.64
3524;BME280;1776;53.330;11.498;2024-01-11T06:34:54;21672.44;;;-147.39;92.47
3524;BME280;1776;53.330;11.498;2024-01-11T06:37:20;21611.47;;;-147.39;92.33
3524;BME280;1776;53.330;11.498;2024-01-11T06:39:45;21646.03;;;-147.39;92.51
3524;BME280;1776;53.330;11.498;2024-01-11T06:42:10;21682.59;;;-147.39;92.48
3524;BME280;1776;53.330;11.498;2024-01-11T06:44:36;21745.59;;;-147.39;92.40
3524;BME280;1776;53.330;11.498;2024-01-11T06:47:01;21639.94;;;-147.39;92.78
3524;BME280;1776;53.330;11.498;2024-01-11T06:49:28;21631.81;;;-147.39;92.90
3524;BME280;1776;53.330;11.498;2024-01-11T06:51:53;21623.66;;;-147.39;92.71
3524;BME280;1776;53.330;11.498;2024-01-11T06:54:19;21613.50;;;-147.39;92.83
3524;BME280;1776;53.330;11.498;2024-01-11T06:56:44;21613.50;;;-147.39;93.02
3524;BME280;1776;53.330;11.498;2024-01-11T06:59:09;21611.47;;;-147.39;93.30
3524;BME280;1776;53.330;11.498;2024-01-11T07:01:34;21747.63;;;-147.39;93.29
3524;BME280;1776;53.330;11.498;2024-01-11T07:04:00;21613.50;;;-147.39;93.23
3524;BME280;1776;53.330;11.498;2024-01-11T07:06:25;21759.81;;;-147.39;93.35
3524;BME280;1776;53.330;11.498;2024-01-11T07:08:50;21461.13;;;-147.39;93.15
3524;BME280;1776;53.330;11.498;2024-01-11T07:11:15;21613.50;;;-147.39;93.30
3524;BME280;1776;53.330;11.498;2024-01-11T07:13:41;21617.56;;;-147.39;93.11
3524;BME280;1776;53.330;11.498;2024-01-11T07:16:06;21568.81;;;-147.39;93.43
3524;BME280;1776;53.330;11.498;2024-01-11T07:18:31;21733.41;;;-147.39;93.38
3524;BME280;1776;53.330;11.498;2024-01-11T07:20:57;21769.97;;;-147.39;92.86
3524;BME280;1776;53.330;11.498;2024-01-11T07:23:23;21641.97;;;-147.39;92.81
3524;BME280;1776;53.330;11.498;2024-01-11T07:25:49;21611.47;;;-147.39;92.76
3524;BME280;1776;53.330;11.498;2024-01-11T07:28:14;21660.25;;;-147.39;92.68
3524;BME280;1776;53.330;11.498;2024-01-11T07:30:39;21623.66;;;-147.39;92.84
3524;BME280;1776;53.330;11.498;2024-01-11T07:33:05;21666.34;;;-147.39;92.09
3524;BME280;1776;53.330;11.498;2024-01-11T07:35:30;21682.59;;;-147.39;92.35
3524;BME280;1776;53.330;11.498;2024-01-11T07:37:56;21648.06;;;-147.39;92.49
3524;BME280;1776;53.330;11.498;2024-01-11T07:40:21;21666.34;;;-147.39;92.59
3524;BME280;1776;53.330;11.498;2024-01-11T07:42:46;21637.91;;;-147.39;92.91
3524;BME280;1776;53.330;11.498;2024-01-11T07:45:12;21617.56;;;-147.39;93.31
3524;BME280;1776;53.330;11.498;2024-01-11T07:47:38;21593.19;;;-147.39;92.98
3524;BME280;1776;53.330;11.498;2024-01-11T07:50:04;21625.69;;;-147.39;93.19
3524;BME280;1776;53.330;11.498;2024-01-11T07:52:31;21605.38;;;-147.39;93.79
3524;BME280;1776;53.330;11.498;2024-01-11T07:54:57;21585.06;;;-147.39;93.75
3524;BME280;1776;53.330;11.498;2024-01-11T07:57:25;21585.06;;;-147.39;93.66
3524;BME280;1776;53.330;11.498;2024-01-11T07:59:50;21566.78;;;-147.39;93.69
3524;BME280;1776;53.330;11.498;2024-01-11T08:02:15;21574.91;;;-147.39;93.79
3524;BME280;1776;53.330;11.498;2024-01-11T08:04:41;21566.78;;;-147.39;93.48
3524;BME280;1776;53.330;11.498;2024-01-11T08:07:06;21605.38;;;-147.39;93.73
3524;BME280;1776;53.330;11.498;2024-01-11T08:09:31;21591.16;;;-147.39;93.60
3524;BME280;1776;53.330;11.498;2024-01-11T08:11:56;21585.06;;;-147.39;94.11
3524;BME280;1776;53.330;11.498;2024-01-11T08:14:22;20971.47;;;-147.39;94.10
3524;BME280;1776;53.330;11.498;2024-01-11T08:16:47;21201.03;;;-147.39;94.18
3524;BME280;1776;53.330;11.498;2024-01-11T08:19:12;21613.50;;;-147.39;94.37
3524;BME280;1776;53.330;11.498;2024-01-11T08:21:39;21522.06;;;-147.39;94.43
3524;BME280;1776;53.330;11.498;2024-01-11T08:24:05;21520.03;;;-147.39;94.59
3524;BME280;1776;53.330;11.498;2024-01-11T08:26:31;21515.97;;;-147.39;94.29
3524;BME280;1776;53.330;11.498;2024-01-11T08:28:57;21495.66;;;-147.39;94.45
3524;BME280;1776;53.330;11.498;2024-01-11T08:31:22;21548.50;;;-147.39;94.72
3524;BME280;1776;53.330;11.498;2024-01-11T08:33:47;21495.66;;;-147.39;94.67
3524;BME280;1776;53.330;11.498;2024-01-11T08:36:13;21485.50;;;-147.39;94.70
3524;BME280;1776;53.330;11.498;2024-01-11T08:38:39;21471.28;;;-147.39;94.62
3524;BME280;1776;53.330;11.498;2024-01-11T08:41:05;21453.00;;;-147.39;94.45
3524;BME280;1776;53.330;11.498;2024-01-11T08:43:31;21511.91;;;-147.39;94.41
3524;BME280;1776;53.330;11.498;2024-01-11T08:45:57;21412.34;;;-147.39;94.35
3524;BME280;1776;53.330;11.498;2024-01-11T08:48:22;21554.59;;;-147.39;93.98
3524;BME280;1776;53.330;11.498;2024-01-11T08:50:47;21542.41;;;-147.39;93.92
3524;BME280;1776;53.330;11.498;2024-01-11T08:53:12;21532.22;;;-147.39;94.00
3524;BME280;1776;53.330;11.498;2024-01-11T08:55:38;21515.97;;;-147.39;94.20
3524;BME280;1776;53.330;11.498;2024-01-11T08:58:03;21509.88;;;-147.39;94.43
3524;BME280;1776;53.330;11.498;2024-01-11T09:00:29;21495.66;;;-147.39;94.10
3524;BME280;1776;53.330;11.498;2024-01-11T09:02:55;21518.00;;;-147.39;93.89
3524;BME280;1776;53.330;11.498;2024-01-11T09:05:20;21534.25;;;-147.39;93.75
3524;BME280;1776;53.330;11.498;2024-01-11T09:07:46;21528.16;;;-147.39;93.89
3524;BME280;1776;53.330;11.498;2024-01-11T09:10:12;21515.97;;;-147.39;94.26
3524;BME280;1776;53.330;11.498;2024-01-11T09:12:37;21534.25;;;-147.39;94.35
3524;BME280;1776;53.330;11.498;2024-01-11T09:15:03;21515.97;;;-147.39;94.33
3524;BME280;1776;53.330;11.498;2024-01-11T09:17:28;21536.28;;;-147.39;94.55
3524;BME280;1776;53.330;11.498;2024-01-11T09:19:53;21520.03;;;-147.39;94.32
3524;BME280;1776;53.330;11.498;2024-01-11T09:22:19;21493.63;;;-147.39;94.21
3524;BME280;1776;53.330;11.498;2024-01-11T09:24:44;21475.34;;;-147.39;94.29
3524;BME280;1776;53.330;11.498;2024-01-11T09:27:09;21499.72;;;-147.39;94.16
3524;BME280;1776;53.330;11.498;2024-01-11T09:29:35;21520.03;;;-147.39;94.46
3524;BME280;1776;53.330;11.498;2024-01-11T09:32:00;21479.41;;;-147.39;94.18
3524;BME280;1776;53.330;11.498;2024-01-11T09:34:26;21524.09;;;-147.39;94.10
3524;BME280;1776;53.330;11.498;2024-01-11T09:36:51;21499.72;;;-147.39;94.37
3524;BME280;1776;53.330;11.498;2024-01-11T09:39:17;21526.13;;;-147.39;94.23
3524;BME280;1776;53.330;11.498;2024-01-11T09:41:52;21513.94;;;-147.39;93.89
3524;BME280;1776;53.330;11.498;2024-01-11T09:44:23;21544.44;;;-147.39;93.94
3524;BME280;1776;53.330;11.498;2024-01-11T09:46:49;21524.09;;;-147.39;94.25
3524;BME280;1776;53.330;11.498;2024-01-11T09:49:16;21536.28;;;-147.39;94.35
3524;BME280;1776;53.330;11.498;2024-01-11T09:51:45;21524.09;;;-147.39;94.08
3524;BME280;1776;53.330;11.498;2024-01-11T09:54:11;21524.09;;;-147.39;93.52
3524;BME280;1776;53.330;11.498;2024-01-11T09:56:39;21560.69;;;-147.39;93.46
3524;BME280;1776;53.330;11.498;2024-01-11T09:59:04;21524.09;;;-147.39;93.94
3524;BME280;1776;53.330;11.498;2024-01-11T10:01:32;21505.81;;;-147.39;94.16
3524;BME280;1776;53.330;11.498;2024-01-11T10:03:57;21493.63;;;-147.39;94.14
3524;BME280;1776;53.330;11.498;2024-01-11T10:06:23;21540.38;;;-147.39;94.20
3524;BME280;1776;53.330;11.498;2024-01-11T10:08:51;21520.03;;;-147.39;94.53
3524;BME280;1776;53.330;11.498;2024-01-11T10:11:16;21463.16;;;-147.39;94.60
3524;BME280;1776;53.330;11.498;2024-01-11T10:13:41;21499.72;;;-147.39;94.70
3524;BME280;1776;53.330;11.498;2024-01-11T10:16:11;21481.44;;;-147.39;94.60
3524;BME280;1776;53.330;11.498;2024-01-11T10:18:40;21503.78;;;-147.39;94.80
3524;BME280;1776;53.330;11.498;2024-01-11T10:21:06;21491.59;;;-147.39;95.29
3524;BME280;1776;53.330;11.498;2024-01-11T10:23:34;21410.31;;;-147.39;95.17
3524;BME280;1776;53.330;11.498;2024-01-11T10:26:00;21487.53;;;-147.39;94.99
3524;BME280;1776;53.330;11.498;2024-01-11T10:28:26;21465.19;;;-147.39;94.90
3524;BME280;1776;53.330;11.498;2024-01-11T10:30:52;21432.66;;;-147.39;94.90
3524;BME280;1776;53.330;11.498;2024-01-11T10:33:22;21438.75;;;-147.39;95.19
3524;BME280;1776;53.330;11.498;2024-01-11T10:35:48;21412.34;;;-147.39;95.40
3524;BME280;1776;53.330;11.498;2024-01-11T10:38:17;21481.44;;;-147.39;95.77
3524;BME280;1776;53.330;11.498;2024-01-11T10:40:43;21398.13;;;-147.39;95.48
3524;BME280;1776;53.330;11.498;2024-01-11T10:43:10;21387.97;;;-147.39;95.62
3524;BME280;1776;53.330;11.498;2024-01-11T10:45:40;21495.66;;;-147.39;95.48
3524;BME280;1776;53.330;11.498;2024-01-11T10:48:15;21355.47;;;-147.39;95.81
3524;BME280;1776;53.330;11.498;2024-01-11T10:50:43;21324.97;;;-147.39;95.69
3524;BME280;1776;53.330;11.498;2024-01-11T10:53:47;21357.50;;;-147.39;95.71
3524;BME280;1776;53.330;11.498;2024-01-11T10:56:13;21322.94;;;-147.39;95.79
3524;BME280;1776;53.330;11.498;2024-01-11T10:58:40;21331.06;;;-147.39;95.86
3524;BME280;1776;53.330;11.498;2024-01-11T11:01:07;21387.97;;;-147.39;96.02
3524;BME280;1776;53.330;11.498;2024-01-11T11:03:34;21327.00;;;-147.39;95.91
3524;BME280;1776;53.330;11.498;2024-01-11T11:06:00;21314.81;;;-147.39;96.26
3524;BME280;1776;53.330;11.498;2024-01-11T11:08:27;21300.59;;;-147.39;96.00
3524;BME280;1776;53.330;11.498;2024-01-11T11:10:56;21339.19;;;-147.39;96.10
3524;BME280;1776;53.330;11.498;2024-01-11T11:13:23;21377.81;;;-147.39;95.85
3524;BME280;1776;53.330;11.498;2024-01-11T11:15:48;21359.53;;;-147.39;96.13
3524;BME280;1776;53.330;11.498;2024-01-11T11:18:14;21286.38;;;-147.39;96.16
3524;BME280;1776;53.330;11.498;2024-01-11T11:20:40;21361.56;;;-147.39;96.18
3524;BME280;1776;53.330;11.498;2024-01-11T11:23:10;21318.88;;;-147.39;95.88
3524;BME280;1776;53.330;11.498;2024-01-11T11:25:36;21361.56;;;-147.39;95.73
3524;BME280;1776;53.330;11.498;2024-01-11T11:28:03;21345.31;;;-147.39;95.61
3524;BME280;1776;53.330;11.498;2024-01-11T11:30:40;21322.94;;;-147.39;95.56
3524;BME280;1776;53.330;11.498;2024-01-11T11:33:24;21298.56;;;-147.39;95.90
3524;BME280;1776;53.330;11.498;2024-01-11T11:35:53;21357.50;;;-147.39;95.79
3524;BME280;1776;53.330;11.498;2024-01-11T11:38:31;21343.28;;;-147.39;96.13
3524;BME280;1776;53.330;11.498;2024-01-11T11:40:58;21337.16;;;-147.39;96.16
3524;BME280;1776;53.330;11.498;2024-01-11T11:43:24;21306.69;;;-147.39;96.32
3524;BME280;1776;53.330;11.498;2024-01-11T11:45:51;21278.25;;;-147.39;96.39
3524;BME280;1776;53.330;11.498;2024-01-11T11:53:34;21266.06;;;-147.39;96.25
3524;BME280;1776;53.330;11.498;2024-01-11T11:56:00;21284.34;;;-147.39;96.35
3524;BME280;1776;53.330;11.498;2024-01-11T11:58:27;21274.19;;;-147.39;96.50
3524;BME280;1776;53.330;11.498;2024-01-11T12:00:53;21341.25;;;-147.39;96.60
3524;BME280;1776;53.330;11.498;2024-01-11T12:03:18;21203.06;;;-147.39;96.61
3524;BME280;1776;53.330;11.498;2024-01-11T12:05:43;21205.09;;;-147.39;97.00
3524;BME280;1776;53.330;11.498;2024-01-11T12:08:09;21259.97;;;-147.39;97.00
3524;BME280;1776;53.330;11.498;2024-01-11T12:10:34;21182.75;;;-147.39;97.06
3524;BME280;1776;53.330;11.498;2024-01-11T12:13:00;21156.34;;;-147.39;97.25
3524;BME280;1776;53.330;11.498;2024-01-11T12:15:27;21176.66;;;-147.39;97.25
3524;BME280;1776;53.330;11.498;2024-01-11T12:17:57;21180.72;;;-147.39;96.78
3524;BME280;1776;53.330;11.498;2024-01-11T12:20:23;21166.50;;;-147.39;96.81
3524;BME280;1776;53.330;11.498;2024-01-11T12:22:48;21162.44;;;-147.39;96.96
3524;BME280;1776;53.330;11.498;2024-01-11T12:25:14;21176.66;;;-147.39;96.63
3524;BME280;1776;53.330;11.498;2024-01-11T12:27:39;21170.56;;;-147.39;96.84
3524;BME280;1776;53.330;11.498;2024-01-11T12:30:06;21225.44;;;-147.39;96.69
3524;BME280;1776;53.330;11.498;2024-01-11T12:32:32;21158.38;;;-147.39;96.34
3524;BME280;1776;53.330;11.498;2024-01-11T12:34:58;21219.31;;;-147.39;96.24
3524;BME280;1776;53.330;11.498;2024-01-11T12:37:23;21178.69;;;-147.39;96.24
3524;BME280;1776;53.330;11.498;2024-01-11T12:39:48;21176.66;;;-147.39;96.60
3524;BME280;1776;53.330;11.498;2024-01-11T12:42:14;21219.31;;;-147.39;96.60
3524;BME280;1776;53.330;11.498;2024-01-11T12:44:39;21219.31;;;-147.39;96.32
3524;BME280;1776;53.330;11.498;2024-01-11T12:47:07;21174.63;;;-147.39;96.57
3524;BME280;1776;53.330;11.498;2024-01-11T12:49:32;21182.75;;;-147.39;96.67